Weather Data

Pearl Creek Farm: 8878 N Farm Road 75, Walnut Grove MO 65770

<== Previous Day (Tuesday 28 Jan 2014) | Next Day (Thursday 30 Jan 2014) ==>

Summary Precipitation Data For Wednesday 29 January 2014

ElementValueUnits
Precipitation0"
Notes(none)
SourcePearl Creek Farm

Summary Temperature Data For Wednesday 29 January 2014

ElementValueUnits
High Temperature40 oF
Low Temperature8 oF
Average Temperature24 oF
High Humidity82 %
Low Humidity34 %
Average Humidity58 %
SourcePearl Creek Farm

Detail Temperature Data For Wednesday 29 January 2014

Date / TimeTemp (F)RH (%)Dew Pt (F)Report Date / TimeSource
2014-01-29 00:00:00 10 72 2.8 2014-02-09 14:43:36 Pearl Creek Farm
2014-01-29 00:30:00 10 73 3.1 2014-02-09 14:43:36 Pearl Creek Farm
2014-01-29 01:00:00 10 72 2.8 2014-02-09 14:43:36 Pearl Creek Farm
2014-01-29 01:30:00 9 75 2.6 2014-02-09 14:43:36 Pearl Creek Farm
2014-01-29 02:00:00 9 74 2.3 2014-02-09 14:43:36 Pearl Creek Farm
2014-01-29 02:30:00 9 75 2.6 2014-02-09 14:43:36 Pearl Creek Farm
2014-01-29 03:00:00 9 76 2.9 2014-02-09 14:43:36 Pearl Creek Farm
2014-01-29 03:30:00 8 74 1.5 2014-02-09 14:43:36 Pearl Creek Farm
2014-01-29 04:00:00 8 74 1.5 2014-02-09 14:43:36 Pearl Creek Farm
2014-01-29 04:30:00 8 75 1.8 2014-02-09 14:43:36 Pearl Creek Farm
2014-01-29 05:00:00 8 76 1.9 2014-02-09 14:43:36 Pearl Creek Farm
2014-01-29 05:30:00 8 77 2.2 2014-02-09 14:43:36 Pearl Creek Farm
2014-01-29 06:00:00 8 76 1.9 2014-02-09 14:43:36 Pearl Creek Farm
2014-01-29 06:30:00 8 77 2.2 2014-02-09 14:43:36 Pearl Creek Farm
2014-01-29 07:00:00 9 77 3.3 2014-02-09 14:43:36 Pearl Creek Farm
2014-01-29 07:30:00 9 77 3.2 2014-02-09 14:43:36 Pearl Creek Farm
2014-01-29 08:00:00 9 78 3.6 2014-02-09 14:43:36 Pearl Creek Farm
2014-01-29 08:30:00 11 81 6.3 2014-02-09 14:43:36 Pearl Creek Farm
2014-01-29 09:00:00 15 82 10.5 2014-02-09 14:43:36 Pearl Creek Farm
2014-01-29 09:30:00 22 80 16.7 2014-02-09 14:43:36 Pearl Creek Farm
2014-01-29 10:00:00 26 73 18.6 2014-02-09 14:43:36 Pearl Creek Farm
2014-01-29 10:30:00 29 68 19.6 2014-02-09 14:43:36 Pearl Creek Farm
2014-01-29 11:00:00 31 61 19.2 2014-02-09 14:43:36 Pearl Creek Farm
2014-01-29 11:30:00 33 54 18.2 2014-02-09 14:43:36 Pearl Creek Farm
2014-01-29 12:00:00 35 49 17.8 2014-02-09 14:43:36 Pearl Creek Farm
2014-01-29 12:30:00 36 45 16.5 2014-02-09 14:43:36 Pearl Creek Farm
2014-01-29 13:00:00 38 40 15.9 2014-02-09 14:43:36 Pearl Creek Farm
2014-01-29 13:30:00 38 38 14.7 2014-02-09 14:43:36 Pearl Creek Farm
2014-01-29 14:00:00 39 36 14.1 2014-02-09 14:43:36 Pearl Creek Farm
2014-01-29 14:30:00 40 36 15.3 2014-02-09 14:43:36 Pearl Creek Farm
2014-01-29 15:00:00 40 34 13.6 2014-02-09 14:43:36 Pearl Creek Farm
2014-01-29 15:30:00 40 34 13.6 2014-02-09 14:43:36 Pearl Creek Farm
2014-01-29 16:00:00 40 35 14.6 2014-02-09 14:43:36 Pearl Creek Farm
2014-01-29 16:30:00 39 35 13.7 2014-02-09 14:43:36 Pearl Creek Farm
2014-01-29 17:00:00 38 37 13.8 2014-02-09 14:43:36 Pearl Creek Farm
2014-01-29 17:30:00 36 38 12.9 2014-02-09 14:43:36 Pearl Creek Farm
2014-01-29 18:00:00 34 42 13.1 2014-02-09 14:43:36 Pearl Creek Farm
2014-01-29 18:30:00 33 43 12.7 2014-02-09 14:43:36 Pearl Creek Farm
2014-01-29 19:00:00 32 44 12.6 2014-02-09 14:43:36 Pearl Creek Farm
2014-01-29 19:30:00 31 46 12.5 2014-02-09 14:43:36 Pearl Creek Farm
2014-01-29 20:00:00 31 46 12.5 2014-02-09 14:43:36 Pearl Creek Farm
2014-01-29 20:30:00 30 47 12.3 2014-02-09 14:43:36 Pearl Creek Farm
2014-01-29 21:00:00 29 48 11.6 2014-02-09 14:43:36 Pearl Creek Farm
2014-01-29 21:30:00 28 49 11.4 2014-02-09 14:43:36 Pearl Creek Farm
2014-01-29 22:00:00 28 51 12.0 2014-02-09 14:43:36 Pearl Creek Farm
2014-01-29 22:30:00 28 51 12.3 2014-02-09 14:43:36 Pearl Creek Farm
2014-01-29 23:00:00 28 52 12.5 2014-02-09 14:43:36 Pearl Creek Farm
2014-01-29 23:30:00 28 53 12.9 2014-02-09 14:43:36 Pearl Creek Farm

A total of 48 rows are displayed.